Prudhoe Bay, Alaska
Current Conditions -  °F | °C
As of 10:53 AM on Sunday 23 Nov 2014 (Local Time) from PASC Reporting Station
Clear Clear  
Wind Chill: -24°   Ceiling: Unl
Heat Index: -7°   Visibility: 10mi
Dew Point: -13°   Wind: 9mph
Humidity: 75%   Direction: 120°ESE
Pressure: 29.73"   Gusts: NA
Location:  70.28°N, 148.38°W
Report Text: PASC 231953Z 12008KT 10SM CLR M22/M25 A2973 RMK AO2 SLP068 T12171250
Loading
Personal Weather Stations






























Interactive Weather Map New forecast layout! Learn more

10-Day Weather Forecast

Advertisements
Track Severe Weather on mobile